createdAt,value
2023-04-05T00:01:54.581Z,91.00
2023-04-05T00:04:21.928Z,91.00
2023-04-05T00:06:52.568Z,91.20
2023-04-05T00:09:20.747Z,91.30
2023-04-05T00:11:48.169Z,91.50
2023-04-05T00:14:15.368Z,91.60
2023-04-05T00:16:42.423Z,91.70
2023-04-05T00:19:11.222Z,91.80
2023-04-05T00:21:39.292Z,91.90
2023-04-05T00:24:07.470Z,91.80
2023-04-05T00:26:34.519Z,91.70
2023-04-05T00:29:01.200Z,91.60
2023-04-05T00:31:29.501Z,91.40
2023-04-05T00:33:56.207Z,91.40
2023-04-05T00:36:23.493Z,91.50
2023-04-05T00:38:50.540Z,91.80
2023-04-05T00:41:17.193Z,92.10
2023-04-05T00:43:43.904Z,92.30
2023-04-05T00:46:11.103Z,92.40
2023-04-05T00:48:38.607Z,92.40
2023-04-05T00:51:09.490Z,92.50
2023-04-05T00:53:37.495Z,92.60
2023-04-05T00:56:04.564Z,92.20
2023-04-05T00:58:31.954Z,92.00
2023-04-05T01:01:14.929Z,92.20
2023-04-05T01:03:46.728Z,92.30
2023-04-05T01:06:27.426Z,92.10
2023-04-05T01:09:16.491Z,92.20
2023-04-05T01:11:44.957Z,92.00
2023-04-05T01:14:11.606Z,91.90
2023-04-05T01:16:38.281Z,91.90
2023-04-05T01:19:05.476Z,91.70
2023-04-05T01:21:38.092Z,91.80
2023-04-05T01:24:16.283Z,91.90
2023-04-05T01:26:58.400Z,91.80
2023-04-05T01:29:51.429Z,92.30
2023-04-05T01:32:54.537Z,92.10
2023-04-05T01:35:32.687Z,92.20
2023-04-05T01:38:03.210Z,92.40
2023-04-05T01:40:32.136Z,92.40
2023-04-05T01:43:02.227Z,92.30
2023-04-05T01:45:29.305Z,92.40
2023-04-05T01:47:56.030Z,92.30
2023-04-05T01:50:22.707Z,92.40
2023-04-05T01:52:49.571Z,92.40
2023-04-05T01:55:16.481Z,92.60
2023-04-05T01:57:43.279Z,92.90
2023-04-05T02:00:10.697Z,92.90
2023-04-05T02:02:37.472Z,92.70
2023-04-05T02:05:04.342Z,92.80
2023-04-05T02:07:30.968Z,92.90
2023-04-05T02:09:57.640Z,93.00
2023-04-05T02:12:24.462Z,93.30
2023-04-05T02:14:52.587Z,93.30
2023-04-05T02:17:19.716Z,93.20
2023-04-05T02:19:47.133Z,93.30
2023-04-05T02:22:14.114Z,93.60
2023-04-05T02:24:41.361Z,93.80
2023-04-05T02:27:08.024Z,93.70
2023-04-05T02:29:34.973Z,93.50
2023-04-05T02:32:02.081Z,93.30
2023-04-05T02:34:29.086Z,93.30
2023-04-05T02:36:56.099Z,93.30
2023-04-05T02:39:22.994Z,93.40
2023-04-05T02:41:49.751Z,93.40
2023-04-05T02:44:16.572Z,93.50
2023-04-05T02:46:43.290Z,93.30
2023-04-05T02:49:09.940Z,93.40
2023-04-05T02:51:36.617Z,93.40
2023-04-05T02:54:03.685Z,93.40
2023-04-05T02:56:30.462Z,93.40
2023-04-05T02:58:57.140Z,93.60
2023-04-05T03:01:24.008Z,93.70
2023-04-05T03:03:51.229Z,94.00
2023-04-05T03:06:18.219Z,94.30
2023-04-05T03:08:46.216Z,94.10
2023-04-05T03:11:13.582Z,94.20
2023-04-05T03:13:40.741Z,94.10
2023-04-05T03:16:08.041Z,94.00
2023-04-05T03:18:34.718Z,94.10
2023-04-05T03:21:01.510Z,94.50
2023-04-05T03:23:30.329Z,94.80
2023-04-05T03:26:00.679Z,94.80
2023-04-05T03:28:28.342Z,94.70
2023-04-05T03:30:55.502Z,94.80
2023-04-05T03:33:22.228Z,94.70
2023-04-05T03:35:49.164Z,94.70
2023-04-05T03:38:16.783Z,94.90
2023-04-05T03:40:43.630Z,95.10
2023-04-05T03:43:10.524Z,95.00
2023-04-05T03:45:37.374Z,95.00
2023-04-05T03:48:04.674Z,94.90
2023-04-05T03:50:31.934Z,95.00
2023-04-05T03:52:58.624Z,95.00
2023-04-05T03:55:25.331Z,95.10
2023-04-05T03:57:52.851Z,95.20
2023-04-05T04:00:20.260Z,95.20
2023-04-05T04:02:48.298Z,95.20
2023-04-05T04:05:16.749Z,95.50
2023-04-05T04:07:44.616Z,95.60
2023-04-05T04:10:17.707Z,95.50
2023-04-05T04:12:45.325Z,95.60
2023-04-05T04:15:12.397Z,95.70
2023-04-05T04:17:39.711Z,95.80
2023-04-05T04:20:11.473Z,95.70
2023-04-05T04:22:40.257Z,95.60
2023-04-05T04:25:10.868Z,95.80
2023-04-05T04:27:39.893Z,95.80
2023-04-05T04:30:12.038Z,95.80
2023-04-05T04:32:52.134Z,95.70
2023-04-05T04:35:25.138Z,95.70
2023-04-05T04:38:00.256Z,95.90
2023-04-05T04:40:41.578Z,96.10
2023-04-05T04:43:14.402Z,96.20
2023-04-05T04:45:41.690Z,96.20
2023-04-05T04:48:08.744Z,96.00
2023-04-05T04:50:36.063Z,96.00
2023-04-05T04:53:02.716Z,96.10
2023-04-05T04:55:30.414Z,96.00
2023-04-05T04:57:57.352Z,96.10
2023-04-05T05:00:24.338Z,96.10
2023-04-05T05:02:52.523Z,96.20
2023-04-05T05:05:23.298Z,96.10
2023-04-05T05:07:50.595Z,96.20
2023-04-05T05:10:17.552Z,96.20
2023-04-05T05:12:44.758Z,95.90
2023-04-05T05:15:12.201Z,95.70
2023-04-05T05:17:39.702Z,95.90
2023-04-05T05:20:11.127Z,95.90
2023-04-05T05:22:38.885Z,95.70
2023-04-05T05:25:07.197Z,95.60
2023-04-05T05:27:34.088Z,95.50
2023-04-05T05:30:01.225Z,95.40
2023-04-05T05:32:28.008Z,95.40
2023-04-05T05:34:54.682Z,95.70
2023-04-05T05:37:29.812Z,95.50
2023-04-05T05:39:56.510Z,95.80
2023-04-05T05:42:23.732Z,95.90
2023-04-05T05:44:50.512Z,96.10
2023-04-05T05:47:17.167Z,96.30
2023-04-05T05:49:44.129Z,96.30
2023-04-05T05:52:11.081Z,96.30
2023-04-05T05:54:37.738Z,96.40
2023-04-05T05:57:04.506Z,96.60
2023-04-05T05:59:31.332Z,96.50
2023-04-05T06:01:58.095Z,96.50
2023-04-05T06:04:25.005Z,96.60
2023-04-05T06:06:52.491Z,96.50
2023-04-05T06:09:19.155Z,96.60
2023-04-05T06:11:55.873Z,96.50
2023-04-05T06:14:24.017Z,96.60
2023-04-05T06:16:50.712Z,96.80
2023-04-05T06:19:17.342Z,97.00
2023-04-05T06:21:44.009Z,97.00
2023-04-05T06:24:10.698Z,97.10
2023-04-05T06:26:37.350Z,97.20
2023-04-05T06:29:04.423Z,97.20
2023-04-05T06:31:33.100Z,97.30
2023-04-05T06:33:59.928Z,97.40
2023-04-05T06:36:27.648Z,97.40
2023-04-05T06:38:54.740Z,97.40
2023-04-05T06:41:21.670Z,97.40
2023-04-05T06:43:48.315Z,97.50
2023-04-05T06:46:15.029Z,97.50
2023-04-05T06:48:43.843Z,97.40
2023-04-05T06:51:10.961Z,97.40
2023-04-05T06:53:37.626Z,97.60
2023-04-05T06:56:04.476Z,97.50
2023-04-05T06:58:31.260Z,97.40
2023-04-05T07:00:58.008Z,97.40
2023-04-05T07:03:24.721Z,97.30
2023-04-05T07:05:59.621Z,97.30
2023-04-05T07:08:28.029Z,97.30
2023-04-05T07:10:55.347Z,97.30
2023-04-05T07:13:24.513Z,97.30
2023-04-05T07:15:51.947Z,97.30
2023-04-05T07:18:20.472Z,97.20
2023-04-05T07:20:51.520Z,97.20
2023-04-05T07:23:18.392Z,97.10
2023-04-05T07:25:45.722Z,97.10
2023-04-05T07:28:12.414Z,97.10
2023-04-05T07:30:39.176Z,97.10
2023-04-05T07:33:06.057Z,97.10
2023-04-05T07:35:32.898Z,97.10
2023-04-05T07:37:59.600Z,97.00
2023-04-05T07:40:26.286Z,97.00
2023-04-05T07:42:53.017Z,96.80
2023-04-05T07:45:19.731Z,96.70
2023-04-05T07:47:46.769Z,96.50
2023-04-05T07:50:15.656Z,96.40
2023-04-05T07:52:42.764Z,96.30
2023-04-05T07:55:10.320Z,96.20
2023-04-05T07:57:37.437Z,96.00
2023-04-05T08:00:10.398Z,95.70
2023-04-05T08:02:37.300Z,95.50
2023-04-05T08:05:04.569Z,95.50
2023-04-05T08:07:31.423Z,95.40
2023-04-05T08:09:59.323Z,95.20
2023-04-05T08:12:32.172Z,95.00
2023-04-05T08:14:58.862Z,94.80
2023-04-05T08:17:28.126Z,94.80
2023-04-05T08:19:54.979Z,94.50
2023-04-05T08:22:21.906Z,94.20
2023-04-05T08:24:48.804Z,93.70
2023-04-05T08:27:15.805Z,93.70
2023-04-05T08:29:42.475Z,93.60
2023-04-05T08:32:09.301Z,93.30
2023-04-05T08:34:36.228Z,93.30
2023-04-05T08:37:03.008Z,93.20
2023-04-05T08:39:29.838Z,92.70
2023-04-05T08:42:18.609Z,92.60
2023-04-05T08:44:47.563Z,92.30
2023-04-05T08:47:19.008Z,92.20
2023-04-05T08:49:45.854Z,92.30
2023-04-05T08:52:12.676Z,92.20
2023-04-05T08:54:39.454Z,92.20
2023-04-05T08:57:07.465Z,92.00
2023-04-05T08:59:38.370Z,91.70
2023-04-05T09:02:14.889Z,91.60
2023-04-05T09:04:44.826Z,91.40
2023-04-05T09:07:13.731Z,91.40
2023-04-05T09:09:44.335Z,91.30
2023-04-05T09:12:11.585Z,91.20
2023-04-05T09:14:41.842Z,91.10
2023-04-05T09:17:09.546Z,91.00
2023-04-05T09:19:36.747Z,91.10
2023-04-05T09:22:05.847Z,90.80
2023-04-05T09:24:42.327Z,90.90
2023-04-05T09:27:14.308Z,90.40
2023-04-05T09:29:44.159Z,90.20
2023-04-05T09:32:11.972Z,90.10
2023-04-05T09:34:40.625Z,89.90
2023-04-05T09:37:16.023Z,88.70
2023-04-05T09:39:44.007Z,88.50
2023-04-05T09:42:11.955Z,88.00
2023-04-05T09:44:57.900Z,86.90
2023-04-05T09:47:31.196Z,86.90
2023-04-05T09:50:06.286Z,87.20
2023-04-05T09:52:33.113Z,86.60
2023-04-05T09:55:02.161Z,86.50
2023-04-05T09:57:33.488Z,85.80
2023-04-05T10:00:00.222Z,85.40
2023-04-05T10:02:39.353Z,83.00
2023-04-05T10:05:15.455Z,83.10
2023-04-05T10:07:45.842Z,83.90
2023-04-05T10:10:15.861Z,83.30
2023-04-05T10:12:42.773Z,82.70
2023-04-05T10:15:11.435Z,83.20
2023-04-05T10:18:09.898Z,83.30
2023-04-05T10:20:40.842Z,81.70
2023-04-05T10:23:33.662Z,82.00
2023-04-05T10:26:19.350Z,81.80
2023-04-05T10:28:52.105Z,80.40
2023-04-05T10:31:37.256Z,79.60
2023-04-05T10:34:10.572Z,79.60
2023-04-05T10:36:53.803Z,79.40
2023-04-05T10:39:33.720Z,79.90
2023-04-05T10:42:20.154Z,79.80
2023-04-05T10:44:51.754Z,79.80
2023-04-05T10:47:20.467Z,79.20
2023-04-05T10:49:49.269Z,78.80
2023-04-05T10:52:17.741Z,78.30
2023-04-05T10:54:45.307Z,78.60
2023-04-05T10:57:13.392Z,77.90
2023-04-05T10:59:43.246Z,78.50
2023-04-05T11:02:11.030Z,78.50
2023-04-05T11:04:41.683Z,77.20
2023-04-05T11:07:16.658Z,76.60
2023-04-05T11:10:01.187Z,77.20
2023-04-05T11:12:56.025Z,76.50
2023-04-05T11:15:29.288Z,76.30
2023-04-05T11:18:10.662Z,77.40
2023-04-05T11:20:56.098Z,76.70
2023-04-05T11:23:25.000Z,76.20
2023-04-05T11:26:04.490Z,76.70
2023-04-05T11:28:37.231Z,76.40
2023-04-05T11:31:19.364Z,74.40
2023-04-05T11:33:55.723Z,74.70
2023-04-05T11:36:47.962Z,75.40
2023-04-05T11:39:23.135Z,75.90
2023-04-05T11:41:58.190Z,74.70
2023-04-05T11:44:24.953Z,74.60
2023-04-05T11:46:54.173Z,74.60
2023-04-05T11:49:25.211Z,74.60
2023-04-05T11:51:53.427Z,75.60
2023-04-05T11:54:30.027Z,74.00
2023-04-05T11:56:56.874Z,74.00
2023-04-05T11:59:36.693Z,73.10
2023-04-05T12:02:08.264Z,74.20
2023-04-05T12:04:36.184Z,74.20
2023-04-05T12:07:20.708Z,74.70
2023-04-05T12:10:03.581Z,74.30
2023-04-05T12:12:40.552Z,73.30
2023-04-05T12:15:09.645Z,73.60
2023-04-05T12:17:43.807Z,73.80
2023-04-05T12:20:12.438Z,72.20
2023-04-05T12:22:41.368Z,71.50
2023-04-05T12:25:09.141Z,71.40
2023-04-05T12:27:36.051Z,72.30
2023-04-05T12:30:22.821Z,72.90
2023-04-05T12:32:54.350Z,73.30
2023-04-05T12:35:21.879Z,72.70
2023-04-05T12:37:51.097Z,73.10
2023-04-05T12:40:22.828Z,72.50
2023-04-05T12:42:50.072Z,72.40
2023-04-05T12:45:18.505Z,73.00
2023-04-05T12:47:50.875Z,73.30
2023-04-05T12:50:19.579Z,73.80
2023-04-05T12:52:57.034Z,73.60
2023-04-05T12:55:24.579Z,73.10
2023-04-05T12:57:55.980Z,72.60
2023-04-05T13:00:27.780Z,72.70
2023-04-05T13:02:56.773Z,72.90
2023-04-05T13:05:25.259Z,72.80
2023-04-05T13:07:52.557Z,72.80
2023-04-05T13:10:20.920Z,73.20
2023-04-05T13:12:48.197Z,74.10
2023-04-05T13:15:18.740Z,74.60
2023-04-05T13:17:45.981Z,73.80
2023-04-05T13:20:12.798Z,73.30
2023-04-05T13:22:39.672Z,73.00
2023-04-05T13:25:06.644Z,73.10
2023-04-05T13:27:33.538Z,73.20
2023-04-05T13:30:00.497Z,73.60
2023-04-05T13:32:27.536Z,74.10
2023-04-05T13:34:54.206Z,73.80
2023-04-05T13:37:21.100Z,73.60
2023-04-05T13:39:47.770Z,73.70
2023-04-05T13:42:14.461Z,73.80
2023-04-05T13:44:41.293Z,73.90
2023-04-05T13:47:08.421Z,74.20
2023-04-05T13:49:35.438Z,73.90
2023-04-05T13:52:02.122Z,73.50
2023-04-05T13:54:29.299Z,73.20
2023-04-05T13:56:57.184Z,73.10
2023-04-05T13:59:23.920Z,73.40
2023-04-05T14:01:50.762Z,73.90
2023-04-05T14:04:17.981Z,73.60
2023-04-05T14:06:45.209Z,73.60
2023-04-05T14:09:12.388Z,73.30
2023-04-05T14:11:39.144Z,72.70
2023-04-05T14:14:06.362Z,72.50
2023-04-05T14:16:33.130Z,72.50
2023-04-05T14:18:59.820Z,72.40
2023-04-05T14:21:27.599Z,72.50
2023-04-05T14:23:57.082Z,72.50
2023-04-05T14:26:26.224Z,72.20
2023-04-05T14:28:53.556Z,72.10
2023-04-05T14:31:20.371Z,72.20
2023-04-05T14:33:47.045Z,72.00
2023-04-05T14:36:13.888Z,71.50
2023-04-05T14:38:40.591Z,70.80
2023-04-05T14:41:08.368Z,70.80
2023-04-05T14:43:35.161Z,70.40
2023-04-05T14:46:01.931Z,70.20
2023-04-05T14:48:30.271Z,69.50
2023-04-05T14:50:57.096Z,69.00
2023-04-05T14:53:23.820Z,69.20
2023-04-05T14:55:50.777Z,69.90
2023-04-05T14:58:17.481Z,70.40
2023-04-05T15:00:45.151Z,70.40
2023-04-05T15:03:11.970Z,70.20
2023-04-05T15:05:38.730Z,70.80
2023-04-05T15:08:05.689Z,70.90
2023-04-05T15:10:33.445Z,70.70
2023-04-05T15:13:00.398Z,70.80
2023-04-05T15:15:27.063Z,70.90
2023-04-05T15:17:53.807Z,71.10
2023-04-05T15:20:20.496Z,71.40
2023-04-05T15:22:47.228Z,71.50
2023-04-05T15:25:14.103Z,71.80
2023-04-05T15:27:40.785Z,71.60
2023-04-05T15:30:08.447Z,71.90
2023-04-05T15:32:35.656Z,72.00
2023-04-05T15:35:03.042Z,72.20
2023-04-05T15:37:29.778Z,72.60
2023-04-05T15:39:56.839Z,72.60
2023-04-05T15:42:23.557Z,72.30
2023-04-05T15:44:50.463Z,72.70
2023-04-05T15:47:17.937Z,73.00
2023-04-05T15:49:44.612Z,73.10
2023-04-05T15:52:11.544Z,73.20
2023-04-05T15:54:38.432Z,73.70
2023-04-05T15:57:05.388Z,74.00
2023-04-05T15:59:32.149Z,74.20
2023-04-05T16:01:59.120Z,74.30
2023-04-05T16:04:27.861Z,74.70
2023-04-05T16:06:55.108Z,74.70
2023-04-05T16:09:22.223Z,74.50
2023-04-05T16:11:49.210Z,74.40
2023-04-05T16:14:16.059Z,74.70
2023-04-05T16:16:53.294Z,75.30
2023-04-05T16:19:21.177Z,75.60
2023-04-05T16:21:48.024Z,75.60
2023-04-05T16:24:14.663Z,75.80
2023-04-05T16:26:41.461Z,76.30
2023-04-05T16:29:08.170Z,76.50
2023-04-05T16:31:36.177Z,76.40
2023-04-05T16:34:03.379Z,76.30
2023-04-05T16:36:30.064Z,76.50
2023-04-05T16:38:56.894Z,76.80
2023-04-05T16:41:23.665Z,77.80
2023-04-05T16:43:51.636Z,77.40
2023-04-05T16:46:18.811Z,77.60
2023-04-05T16:48:45.688Z,77.70
2023-04-05T16:51:13.074Z,77.90
2023-04-05T16:53:39.813Z,78.10
2023-04-05T16:56:06.547Z,78.30
2023-04-05T16:58:33.433Z,78.50
2023-04-05T17:01:00.563Z,78.60
2023-04-05T17:03:27.412Z,78.50
2023-04-05T17:05:54.180Z,78.50
2023-04-05T17:08:20.907Z,78.60
2023-04-05T17:10:47.708Z,78.90
2023-04-05T17:13:18.122Z,78.90
2023-04-05T17:15:44.901Z,79.30
2023-04-05T17:18:12.445Z,79.40
2023-04-05T17:20:39.301Z,79.50
2023-04-05T17:23:05.955Z,79.70
2023-04-05T17:25:32.674Z,79.50
2023-04-05T17:27:59.359Z,80.30
2023-04-05T17:30:26.309Z,80.90
2023-04-05T17:32:53.252Z,81.10
2023-04-05T17:35:20.110Z,82.00
2023-04-05T17:37:47.600Z,82.60
2023-04-05T17:40:15.549Z,83.30
2023-04-05T17:42:42.688Z,83.40
2023-04-05T17:45:09.661Z,84.20
2023-04-05T17:47:36.586Z,84.60
2023-04-05T17:50:03.707Z,85.10
2023-04-05T17:52:31.328Z,85.30
2023-04-05T17:54:58.150Z,85.50
2023-04-05T17:57:24.874Z,85.60
2023-04-05T17:59:51.629Z,85.40
2023-04-05T18:02:18.709Z,85.20
2023-04-05T18:04:45.436Z,84.70
2023-04-05T18:07:12.759Z,84.30
2023-04-05T18:09:41.981Z,84.30
2023-04-05T18:12:09.388Z,84.20
2023-04-05T18:14:38.855Z,84.10
2023-04-05T18:17:09.414Z,84.40
2023-04-05T18:19:36.141Z,84.70
2023-04-05T18:22:02.850Z,86.00
2023-04-05T18:24:29.710Z,86.50
2023-04-05T18:26:57.561Z,87.60
2023-04-05T18:29:28.253Z,88.10
2023-04-05T18:31:56.122Z,89.30
2023-04-05T18:34:23.027Z,89.80
2023-04-05T18:36:49.814Z,90.00
2023-04-05T18:39:16.781Z,90.20
2023-04-05T18:41:43.463Z,90.60
2023-04-05T18:44:10.277Z,90.60
2023-04-05T18:46:36.963Z,90.80
2023-04-05T18:49:03.666Z,90.90
2023-04-05T18:51:31.311Z,91.20
2023-04-05T18:53:58.622Z,91.20
2023-04-05T18:56:27.660Z,91.40
2023-04-05T18:58:54.422Z,91.60
2023-04-05T19:01:21.592Z,91.80
2023-04-05T19:03:49.140Z,91.90
2023-04-05T19:06:16.639Z,92.10
2023-04-05T19:08:43.355Z,92.50
2023-04-05T19:11:13.248Z,92.30
2023-04-05T19:13:43.561Z,92.40
2023-04-05T19:16:10.406Z,92.50
2023-04-05T19:18:37.163Z,92.50
2023-04-05T19:21:03.954Z,92.70
2023-04-05T19:23:31.351Z,92.80
2023-04-05T19:25:58.383Z,93.00
2023-04-05T19:28:27.306Z,93.00
2023-04-05T19:30:54.160Z,93.10
2023-04-05T19:33:21.946Z,93.10
2023-04-05T19:35:49.091Z,93.40
2023-04-05T19:38:16.323Z,93.40
2023-04-05T19:40:43.339Z,93.50
2023-04-05T19:43:10.230Z,93.60
2023-04-05T19:45:37.172Z,93.70
2023-04-05T19:48:27.911Z,93.80
2023-04-05T19:50:56.816Z,93.80
2023-04-05T19:53:48.670Z,93.90
2023-04-05T19:56:21.804Z,94.10
2023-04-05T19:59:01.141Z,94.10
2023-04-05T20:01:39.259Z,94.10
2023-04-05T20:04:17.370Z,94.20
2023-04-05T20:06:52.604Z,94.30
2023-04-05T20:09:20.757Z,94.30
2023-04-05T20:11:58.011Z,94.50
2023-04-05T20:14:41.244Z,94.60
2023-04-05T20:17:08.674Z,94.60
2023-04-05T20:19:38.732Z,94.60
2023-04-05T20:22:07.749Z,94.70
2023-04-05T20:24:36.557Z,94.80
2023-04-05T20:27:04.014Z,94.90
2023-04-05T20:29:35.958Z,94.90
2023-04-05T20:32:03.143Z,95.10
2023-04-05T20:34:35.460Z,95.20
2023-04-05T20:37:11.392Z,95.30
2023-04-05T20:39:38.448Z,95.30
2023-04-05T20:42:05.220Z,95.40
2023-04-05T20:44:32.037Z,95.40
2023-04-05T20:46:58.944Z,95.50
2023-04-05T20:49:25.639Z,95.60
2023-04-05T20:51:54.775Z,95.60
2023-04-05T20:54:22.475Z,95.70
2023-04-05T20:56:49.179Z,95.90
2023-04-05T20:59:16.058Z,95.90
2023-04-05T21:01:43.101Z,95.90
2023-04-05T21:04:10.222Z,95.90
2023-04-05T21:06:37.453Z,96.00
2023-04-05T21:09:04.595Z,96.00
2023-04-05T21:11:31.279Z,96.10
2023-04-05T21:13:58.178Z,96.10
2023-04-05T21:16:25.033Z,96.20
2023-04-05T21:18:51.804Z,96.20
2023-04-05T21:21:18.654Z,96.30
2023-04-05T21:23:45.448Z,96.40
2023-04-05T21:26:12.111Z,96.50
2023-04-05T21:28:38.820Z,96.50
2023-04-05T21:31:05.588Z,96.60
2023-04-05T21:33:32.266Z,96.60
2023-04-05T21:35:59.049Z,96.60
2023-04-05T21:38:25.843Z,96.70
2023-04-05T21:40:52.735Z,96.60
2023-04-05T21:43:19.384Z,96.70
2023-04-05T21:45:46.622Z,96.70
2023-04-05T21:48:13.374Z,96.80
2023-04-05T21:50:40.005Z,97.00
2023-04-05T21:53:07.480Z,96.90
2023-04-05T21:55:34.154Z,97.00
2023-04-05T21:58:00.966Z,97.00
2023-04-05T22:00:28.210Z,97.10
2023-04-05T22:02:54.965Z,97.10
2023-04-05T22:05:33.780Z,97.10
2023-04-05T22:08:01.292Z,97.20
2023-04-05T22:10:29.060Z,97.10
2023-04-05T22:12:56.091Z,97.30
2023-04-05T22:15:22.742Z,97.40
2023-04-05T22:17:49.437Z,97.40
2023-04-05T22:20:16.397Z,97.40
2023-04-05T22:22:43.195Z,97.50
2023-04-05T22:25:10.109Z,97.50
2023-04-05T22:27:36.940Z,97.50
2023-04-05T22:30:05.482Z,97.60
2023-04-05T22:32:32.229Z,97.70
2023-04-05T22:34:58.932Z,97.70
2023-04-05T22:37:25.709Z,98.20
2023-04-05T22:39:52.524Z,97.80
2023-04-05T22:42:19.335Z,97.70
2023-04-05T22:44:46.168Z,97.70
2023-04-05T22:47:12.900Z,97.70
2023-04-05T22:49:39.558Z,97.90
2023-04-05T22:52:06.249Z,97.80
2023-04-05T22:54:32.978Z,97.90
2023-04-05T22:56:59.629Z,97.90
2023-04-05T22:59:26.349Z,98.00
2023-04-05T23:01:53.303Z,98.20
2023-04-05T23:04:20.042Z,98.00
2023-04-05T23:06:46.898Z,98.00
2023-04-05T23:09:14.695Z,98.20
2023-04-05T23:11:41.410Z,98.30
2023-04-05T23:14:08.273Z,98.30
2023-04-05T23:16:35.528Z,98.40
2023-04-05T23:19:02.278Z,98.50
2023-04-05T23:21:28.948Z,98.70
2023-04-05T23:23:55.961Z,98.70
2023-04-05T23:26:22.631Z,98.80
2023-04-05T23:28:49.304Z,98.60
2023-04-05T23:31:16.141Z,98.50
2023-04-05T23:33:42.854Z,98.50
2023-04-05T23:36:09.900Z,98.50
2023-04-05T23:38:37.310Z,98.60
2023-04-05T23:41:04.213Z,98.70
2023-04-05T23:43:32.408Z,98.80
2023-04-05T23:45:59.054Z,98.80
2023-04-05T23:48:25.942Z,99.00
2023-04-05T23:50:52.676Z,98.80
2023-04-05T23:53:19.376Z,98.80
2023-04-05T23:55:46.452Z,98.70
2023-04-05T23:58:13.079Z,98.70
